Time;durP1;ratioP1;P1;durP2;ratioP2;P2;SDS_P1;SDS_P2;PMS_P1;PMS_P2;Temp;Humidity;BMP_temperature;BMP_pressure;BME280_temperature;BME280_humidity;BME280_pressure;Samples;Min_cycle;Max_cycle;Signal;HPM_P1;HPM_P2
2021/10/18 00:03:41;;;;;;;20.23;9.20;;;;;;;;;;5059400;28;20059;-58
2021/10/18 00:06:43;;;;;;;12.63;8.65;;;;;;;;;;5058623;28;20033;-58
2021/10/18 00:09:29;;;;;;;11.27;8.52;;;;;;;;;;5047160;28;20067;-58
2021/10/18 00:12:26;;;;;;;15.27;9.65;;;;;;;;;;5059227;28;20029;-57
2021/10/18 00:15:07;;;;;;;15.52;9.65;;;;;;;;;;5058188;28;20025;-58
2021/10/18 00:17:55;;;;;;;13.07;7.97;;;;;;;;;;5058068;28;20029;-58
2021/10/18 00:20:45;;;;;;;16.80;10.85;;;;;;;;;;5038333;28;20104;-58
2021/10/18 00:26:23;;;;;;;14.55;10.63;;;;;;;;;;5050776;28;20033;-58
2021/10/18 00:32:29;;;;;;;17.45;9.60;;;;;;;;;;5065614;28;20044;-58
2021/10/18 00:35:17;;;;;;;14.27;9.77;;;;;;;;;;5079420;28;20013;-57
2021/10/18 00:38:03;;;;;;;15.68;10.27;;;;;;;;;;5078201;28;20021;-57
2021/10/18 00:43:46;;;;;;;22.85;12.05;;;;;;;;;;5053812;28;20054;-58
2021/10/18 00:46:32;;;;;;;14.38;10.63;;;;;;;;;;5091127;28;20033;-58
2021/10/18 00:49:08;;;;;;;19.13;11.55;;;;;;;;;;5077096;28;20097;-58
2021/10/18 00:52:06;;;;;;;17.08;10.60;;;;;;;;;;5078165;28;20021;-58
2021/10/18 00:54:42;;;;;;;18.38;11.13;;;;;;;;;;5079012;28;20386;-58
2021/10/18 00:57:08;;;;;;;16.13;12.55;;;;;;;;;;5078383;28;20029;-58
2021/10/18 00:59:43;;;;;;;19.33;11.98;;;;;;;;;;5092966;28;20037;-58
2021/10/18 01:05:18;;;;;;;16.60;10.57;;;;;;;;;;5079237;28;20056;-58
2021/10/18 01:08:14;;;;;;;18.30;12.32;;;;;;;;;;5077740;28;20033;-58
2021/10/18 01:10:44;;;;;;;17.48;11.43;;;;;;;;;;5077319;28;20079;-57
2021/10/18 01:13:19;;;;;;;28.15;12.20;;;;;;;;;;5079257;28;20025;-58
2021/10/18 01:16:14;;;;;;;22.25;11.93;;;;;;;;;;5078978;28;20028;-58
2021/10/18 01:18:55;;;;;;;20.00;12.48;;;;;;;;;;5077754;28;20099;-58
2021/10/18 01:21:35;;;;;;;;;;;;;;;;;;;;;
2021/10/18 01:24:19;;;;;;;15.38;10.18;;;;;;;;;;5068000;28;20008;-58
2021/10/18 01:27:00;;;;;;;22.15;12.80;;;;;;;;;;5092917;28;20029;-57
2021/10/18 01:30:05;;;;;;;18.63;11.98;;;;;;;;;;5078162;28;20032;-58
2021/10/18 01:32:47;;;;;;;17.63;10.95;;;;;;;;;;5077363;28;20344;-58
2021/10/18 01:35:23;;;;;;;17.48;11.25;;;;;;;;;;5060222;28;20033;-58
2021/10/18 01:37:59;;;;;;;20.00;12.27;;;;;;;;;;5078118;28;20338;-58
2021/10/18 01:40:47;;;;;;;19.90;11.38;;;;;;;;;;5078478;28;20028;-58
2021/10/18 01:43:39;;;;;;;18.27;11.30;;;;;;;;;;5059651;28;20048;-58
2021/10/18 01:46:13;;;;;;;20.83;12.07;;;;;;;;;;5007703;28;20036;-58
2021/10/18 01:49:03;;;;;;;22.42;12.88;;;;;;;;;;5071141;28;20039;-58
2021/10/18 01:51:57;;;;;;;17.95;12.00;;;;;;;;;;5077505;28;20024;-58
2021/10/18 01:54:41;;;;;;;23.73;13.18;;;;;;;;;;5057970;28;20032;-58
2021/10/18 01:57:39;;;;;;;;;;;;;;;;;;;;;
2021/10/18 02:00:24;;;;;;;23.95;12.57;;;;;;;;;;5081056;28;20088;-58
2021/10/18 02:06:09;;;;;;;38.05;12.88;;;;;;;;;;5066990;28;20055;-58
2021/10/18 02:09:08;;;;;;;23.33;12.48;;;;;;;;;;5080924;28;20047;-58
2021/10/18 02:11:58;;;;;;;23.00;15.15;;;;;;;;;;5081954;28;20040;-58
2021/10/18 02:14:43;;;;;;;28.90;15.40;;;;;;;;;;5064020;28;20040;-58
2021/10/18 02:17:51;;;;;;;;;;;;;;;;;;;;;
2021/10/18 02:20:21;;;;;;;16.85;12.70;;;;;;;;;;5074922;28;20104;-58
2021/10/18 02:23:04;;;;;;;27.80;12.38;;;;;;;;;;5081766;28;20029;-58
2021/10/18 02:25:45;;;;;;;24.80;12.27;;;;;;;;;;5075639;28;20049;-58
2021/10/18 02:28:25;;;;;;;25.88;14.23;;;;;;;;;;5081011;28;20029;-58
2021/10/18 02:31:07;;;;;;;28.02;15.25;;;;;;;;;;5063709;28;20412;-58
2021/10/18 02:33:56;;;;;;;21.10;13.70;;;;;;;;;;5080920;28;20024;-58
2021/10/18 02:37:00;;;;;;;;;;;;;;;;;;;;;
2021/10/18 02:39:41;;;;;;;19.70;13.18;;;;;;;;;;5038844;28;20096;-58
2021/10/18 02:42:36;;;;;;;21.05;12.38;;;;;;;;;;5077539;28;20040;-58
2021/10/18 02:45:17;;;;;;;25.65;12.10;;;;;;;;;;5070588;28;20041;-58
2021/10/18 02:47:47;;;;;;;24.95;13.43;;;;;;;;;;5095507;28;20020;-58
2021/10/18 02:50:27;;;;;;;25.52;14.90;;;;;;;;;;5096077;28;20039;-58
2021/10/18 02:53:06;;;;;;;20.95;13.95;;;;;;;;;;5081772;28;20020;-58
2021/10/18 02:59:10;;;;;;;23.70;13.38;;;;;;;;;;5080582;28;20043;-58
2021/10/18 03:02:17;;;;;;;;;;;;;;;;;;;;;
2021/10/18 03:05:02;;;;;;;49.75;16.05;;;;;;;;;;5079946;28;20059;-58
2021/10/18 03:08:00;;;;;;;;;;;;;;;;;;;;;
2021/10/18 03:10:40;;;;;;;18.17;13.13;;;;;;;;;;5079221;28;20354;-58
2021/10/18 03:13:29;;;;;;;;;;;;;;;;;;;;;
2021/10/18 03:15:55;;;;;;;28.17;14.40;;;;;;;;;;5081050;28;20091;-58
2021/10/18 03:18:43;;;;;;;24.35;14.20;;;;;;;;;;5079688;28;20043;-58
2021/10/18 03:24:22;;;;;;;24.25;14.93;;;;;;;;;;5067629;28;20092;-58
2021/10/18 03:27:03;;;;;;;26.17;13.70;;;;;;;;;;5080458;28;20024;-58
2021/10/18 03:29:50;;;;;;;26.50;14.57;;;;;;;;;;5081018;28;20024;-58
2021/10/18 03:33:05;;;;;;;26.90;15.93;;;;;;;;;;5022621;28;20048;-58
2021/10/18 03:38:42;;;;;;;25.10;15.18;;;;;;;;;;4990919;28;20038;-58
2021/10/18 03:41:18;;;;;;;33.97;15.80;;;;;;;;;;4975275;28;20547;-57
2021/10/18 03:44:25;;;;;;;28.35;15.38;;;;;;;;;;5018542;28;20505;-58
2021/10/18 03:47:38;;;;;;;28.50;15.60;;;;;;;;;;5042555;28;20494;-57
2021/10/18 03:49:49;;;;;;;25.15;14.10;;;;;;;;;;5066315;28;20375;-57
2021/10/18 03:52:37;;;;;;;29.75;16.58;;;;;;;;;;5073572;28;20337;-58
2021/10/18 03:55:29;;;;;;;28.05;16.70;;;;;;;;;;5073205;28;20043;-57
2021/10/18 03:58:21;;;;;;;33.60;17.60;;;;;;;;;;5072068;28;20020;-58
2021/10/18 04:01:25;;;;;;;;;;;;;;;;;;;;;
2021/10/18 04:04:20;;;;;;;23.63;14.15;;;;;;;;;;5034139;28;20047;-59
2021/10/18 04:07:08;;;;;;;28.75;15.43;;;;;;;;;;5009849;28;20038;-58
2021/10/18 04:09:47;;;;;;;28.80;15.95;;;;;;;;;;5010947;28;20037;-58
2021/10/18 04:12:32;;;;;;;24.60;15.73;;;;;;;;;;5073190;28;20060;-58
2021/10/18 04:15:16;;;;;;;23.88;14.45;;;;;;;;;;5072875;28;20298;-58
2021/10/18 04:18:00;;;;;;;28.27;16.02;;;;;;;;;;5071206;28;20217;-58
2021/10/18 04:20:39;;;;;;;27.73;16.70;;;;;;;;;;5054519;28;20055;-58
2021/10/18 04:23:16;;;;;;;34.53;16.90;;;;;;;;;;5069790;28;20476;-57
2021/10/18 04:26:28;;;;;;;29.65;16.33;;;;;;;;;;5054919;28;20501;-58
2021/10/18 04:29:25;;;;;;;34.08;17.58;;;;;;;;;;5071463;28;20050;-57
2021/10/18 04:32:04;;;;;;;26.95;16.73;;;;;;;;;;5051590;28;20044;-58
2021/10/18 04:34:49;;;;;;;27.10;15.70;;;;;;;;;;5072517;28;20355;-58
2021/10/18 04:40:52;;;;;;;22.35;14.82;;;;;;;;;;5072973;28;20076;-58
2021/10/18 04:43:36;;;;;;;;;;;;;;;;;;5075668;28;20456;-58
2021/10/18 04:46:38;;;;;;;20.73;11.48;;;;;;;;;;5078009;28;19904;-58
2021/10/18 04:49:21;;;;;;;36.08;16.27;;;;;;;;;;5081030;28;20089;-58
2021/10/18 04:51:58;;;;;;;26.45;16.90;;;;;;;;;;5069488;28;20401;-58
2021/10/18 04:54:44;;;;;;;;;;;;;;;;;;;;;
2021/10/18 04:57:20;;;;;;;27.95;15.15;;;;;;;;;;5073201;28;20036;-58
2021/10/18 05:00:02;;;;;;;28.45;15.25;;;;;;;;;;5072227;28;20032;-58
2021/10/18 05:08:53;;;;;;;30.40;18.15;;;;;;;;;;5048239;28;20024;-58
2021/10/18 05:11:45;;;;;;;;;;;;;;;;;;;;;
2021/10/18 05:17:35;;;;;;;32.67;18.92;;;;;;;;;;5090995;28;20116;-58
2021/10/18 05:23:38;;;;;;;;;;;;;;;;;;;;;
2021/10/18 05:26:20;;;;;;;39.47;17.67;;;;;;;;;;5071592;28;20499;-58
2021/10/18 05:29:13;;;;;;;32.83;17.30;;;;;;;;;;5071947;28;20032;-58
2021/10/18 05:34:41;;;;;;;34.53;17.17;;;;;;;;;;5061019;28;20370;-57
2021/10/18 05:37:27;;;;;;;36.45;18.05;;;;;;;;;;5073230;28;20178;-58
2021/10/18 05:40:18;;;;;;;32.35;17.10;;;;;;;;;;5075176;28;20037;-58
2021/10/18 05:43:19;;;;;;;32.03;16.50;;;;;;;;;;5051085;28;20474;-58
2021/10/18 05:49:08;;;;;;;32.30;19.38;;;;;;;;;;5075656;28;20482;-58
2021/10/18 05:51:50;;;;;;;32.90;18.38;;;;;;;;;;5075314;28;20069;-58
2021/10/18 05:54:51;;;;;;;26.50;15.77;;;;;;;;;;5075255;28;20021;-58
2021/10/18 05:57:41;;;;;;;;;;;;;;;;;;;;;
2021/10/18 06:00:26;;;;;;;;;;;;;;;;;;;;;
2021/10/18 06:03:34;;;;;;;28.17;15.48;;;;;;;;;;5072626;28;20115;-57
2021/10/18 06:09:36;;;;;;;41.25;24.67;;;;;;;;;;5049086;28;20120;-58
2021/10/18 06:12:29;;;;;;;27.25;18.42;;;;;;;;;;5053528;28;20033;-59
2021/10/18 06:15:28;;;;;;;25.63;14.80;;;;;;;;;;5037105;28;20356;-58
2021/10/18 06:18:14;;;;;;;25.40;14.88;;;;;;;;;;5035776;28;20036;-58
2021/10/18 06:20:51;;;;;;;26.83;14.20;;;;;;;;;;5056240;28;20399;-58
2021/10/18 06:23:32;;;;;;;32.50;16.27;;;;;;;;;;5074564;28;20032;-57
2021/10/18 06:29:11;;;;;;;17.95;11.15;;;;;;;;;;5063181;28;20029;-58
2021/10/18 06:31:57;;;;;;;24.85;14.38;;;;;;;;;;5074403;28;20032;-58
2021/10/18 06:38:02;;;;;;;31.05;13.77;;;;;;;;;;5040712;28;20037;-58
2021/10/18 06:41:03;;;;;;;21.55;13.80;;;;;;;;;;5052473;28;20067;-58
2021/10/18 06:43:38;;;;;;;20.90;14.70;;;;;;;;;;5054747;28;20033;-57
2021/10/18 06:46:19;;;;;;;22.67;12.48;;;;;;;;;;5054620;28;20252;-57
2021/10/18 06:48:47;;;;;;;23.92;13.68;;;;;;;;;;5054984;28;20486;-57
2021/10/18 06:51:33;;;;;;;26.23;15.25;;;;;;;;;;5050193;28;20033;-58
2021/10/18 06:54:36;;;;;;;28.73;15.43;;;;;;;;;;5042881;28;20429;-57
2021/10/18 07:00:23;;;;;;;;;;;;;;;;;;;;;
2021/10/18 07:03:08;;;;;;;;;;;;;;;;;;;;;
2021/10/18 07:06:07;;;;;;;25.42;14.45;;;;;;;;;;5053627;28;20104;-57
2021/10/18 07:11:41;;;;;;;24.77;15.73;;;;;;;;;;5053782;28;20032;-57
2021/10/18 07:14:17;;;;;;;24.30;15.10;;;;;;;;;;5054285;28;20028;-58
2021/10/18 07:17:10;;;;;;;32.13;19.15;;;;;;;;;;5071299;28;20538;-58
2021/10/18 07:20:01;;;;;;;;;;;;;;;;;;;;;
2021/10/18 07:22:59;;;;;;;37.25;17.52;;;;;;;;;;5073917;28;20422;-57
2021/10/18 07:25:50;;;;;;;32.13;18.00;;;;;;;;;;5072393;28;20083;-57
2021/10/18 07:28:41;;;;;;;24.92;16.65;;;;;;;;;;5072178;28;20466;-57
2021/10/18 07:31:41;;;;;;;38.50;19.05;;;;;;;;;;5074140;28;20090;-57
2021/10/18 07:34:17;;;;;;;26.30;16.38;;;;;;;;;;4998203;28;20052;-57
2021/10/18 07:36:58;;;;;;;32.45;18.90;;;;;;;;;;5032252;28;20433;-58
2021/10/18 07:39:55;;;;;;;;;;;;;;;;;;;;;
2021/10/18 07:42:41;;;;;;;19.17;17.05;;;;;;;;;;5048837;28;20043;-57
2021/10/18 07:45:45;;;;;;;28.92;17.88;;;;;;;;;;5035095;28;20489;-57
2021/10/18 07:48:32;;;;;;;26.77;16.80;;;;;;;;;;5062295;28;20474;-57
2021/10/18 07:54:37;;;;;;;27.10;16.50;;;;;;;;;;5029832;28;20119;-58
2021/10/18 07:57:10;;;;;;;25.27;16.85;;;;;;;;;;5029097;28;20061;-58
2021/10/18 08:03:01;;;;;;;22.48;18.25;;;;;;;;;;5073019;28;20400;-57
2021/10/18 08:05:41;;;;;;;25.48;16.80;;;;;;;;;;5039204;28;20485;-58
2021/10/18 08:08:44;;;;;;;26.40;17.08;;;;;;;;;;5071760;28;20031;-58
2021/10/18 08:11:33;;;;;;;31.42;21.02;;;;;;;;;;5043472;28;20522;-58
2021/10/18 08:14:25;;;;;;;27.98;17.05;;;;;;;;;;5072880;28;20103;-58
2021/10/18 08:17:03;;;;;;;29.48;18.90;;;;;;;;;;5053309;28;20531;-59
2021/10/18 08:19:35;;;;;;;25.65;18.25;;;;;;;;;;5039174;28;20048;-57
2021/10/18 08:22:41;;;;;;;24.10;16.08;;;;;;;;;;5071371;28;20048;-57
2021/10/18 08:28:16;;;;;;;25.48;18.05;;;;;;;;;;5054528;28;20033;-57
2021/10/18 08:30:59;;;;;;;27.38;19.50;;;;;;;;;;5054737;28;20505;-58
2021/10/18 08:33:48;;;;;;;28.58;17.83;;;;;;;;;;5072501;28;20051;-57
2021/10/18 08:36:46;;;;;;;29.13;18.48;;;;;;;;;;5057993;28;20064;-58
2021/10/18 08:45:44;;;;;;;27.40;17.92;;;;;;;;;;5059875;28;20032;-57
2021/10/18 08:48:43;;;;;;;;;;;;;;;;;;;;;
2021/10/18 08:54:46;;;;;;;30.02;18.50;;;;;;;;;;5027710;28;20037;-58
2021/10/18 08:57:18;;;;;;;23.08;16.48;;;;;;;;;;5033352;28;20501;-58
2021/10/18 08:59:51;;;;;;;23.48;17.60;;;;;;;;;;5056920;28;20043;-58
2021/10/18 09:02:41;;;;;;;25.83;18.20;;;;;;;;;;5054328;28;20040;-58
2021/10/18 09:05:37;;;;;;;;;;;;;;;;;;;;;
2021/10/18 09:08:07;;;;;;;20.98;14.32;;;;;;;;;;5075326;28;20107;-58
2021/10/18 09:10:46;;;;;;;23.95;15.75;;;;;;;;;;5069745;28;20045;-58
2021/10/18 09:13:29;;;;;;;25.13;16.77;;;;;;;;;;5076077;28;20451;-58
2021/10/18 09:19:12;;;;;;;24.52;18.02;;;;;;;;;;5067601;28;20075;-57
2021/10/18 09:21:53;;;;;;;22.73;17.20;;;;;;;;;;5053475;28;20025;-58
2021/10/18 09:24:50;;;;;;;23.48;17.45;;;;;;;;;;5066468;28;20438;-57
2021/10/18 09:27:33;;;;;;;19.63;14.77;;;;;;;;;;5074855;28;20039;-58
2021/10/18 09:30:09;;;;;;;19.95;14.32;;;;;;;;;;5075876;28;20052;-58
2021/10/18 09:33:08;;;;;;;20.20;15.30;;;;;;;;;;5076271;28;20039;-58
2021/10/18 09:38:49;;;;;;;21.50;15.63;;;;;;;;;;5060153;28;20049;-58
2021/10/18 09:41:34;;;;;;;19.00;15.52;;;;;;;;;;5075696;28;20381;-58
2021/10/18 09:47:42;;;;;;;23.52;16.88;;;;;;;;;;5050725;28;20090;-57
2021/10/18 10:54:12;;;;;;;23.00;14.80;;;;;;;;;;5074440;28;20478;-58
2021/10/18 10:57:11;;;;;;;18.80;14.63;;;;;;;;;;5038058;28;20036;-58
2021/10/18 10:59:59;;;;;;;26.25;14.93;;;;;;;;;;5073830;28;20233;-58
2021/10/18 11:02:54;;;;;;;18.45;15.52;;;;;;;;;;5056193;28;20048;-58
2021/10/18 11:06:03;;;;;;;18.38;16.10;;;;;;;;;;5053191;28;20441;-58
2021/10/18 11:11:40;;;;;;;16.73;13.40;;;;;;;;;;5011648;28;20200;-58
2021/10/18 11:14:16;;;;;;;18.95;14.13;;;;;;;;;;5064298;28;20040;-58
2021/10/18 11:17:10;;;;;;;19.77;15.45;;;;;;;;;;5072664;28;20131;-58
2021/10/18 11:19:59;;;;;;;18.83;14.77;;;;;;;;;;5073530;28;20029;-58
2021/10/18 11:22:37;;;;;;;22.38;15.35;;;;;;;;;;5073346;28;20444;-56
2021/10/18 11:25:22;;;;;;;20.45;15.07;;;;;;;;;;5055554;28;20093;-58
2021/10/18 11:30:53;;;;;;;17.80;14.98;;;;;;;;;;5073856;28;20101;-58
2021/10/18 11:33:31;;;;;;;19.00;14.23;;;;;;;;;;5073301;28;20089;-58
2021/10/18 11:36:24;;;;;;;19.33;15.02;;;;;;;;;;5073571;28;20028;-57
2021/10/18 11:39:11;;;;;;;22.27;14.38;;;;;;;;;;5072674;28;20104;-57
2021/10/18 11:41:59;;;;;;;22.95;15.55;;;;;;;;;;5073524;28;20040;-58
2021/10/18 11:45:05;;;;;;;16.55;12.95;;;;;;;;;;5053480;28;20523;-58
2021/10/18 11:47:52;;;;;;;16.10;11.60;;;;;;;;;;5052059;28;20055;-58
2021/10/18 11:50:58;;;;;;;;;;;;;;;;;;;;;
2021/10/18 11:53:53;;;;;;;16.17;12.63;;;;;;;;;;5063751;28;20135;-57
2021/10/18 11:56:37;;;;;;;17.65;13.07;;;;;;;;;;5051347;28;20398;-58
2021/10/18 11:59:12;;;;;;;15.27;12.70;;;;;;;;;;5054926;28;20482;-58
2021/10/18 12:01:54;;;;;;;16.27;12.85;;;;;;;;;;5073047;28;20540;-58
2021/10/18 12:04:25;;;;;;;18.52;12.77;;;;;;;;;;5051964;28;20040;-58
2021/10/18 12:07:14;;;;;;;18.40;11.98;;;;;;;;;;5035255;28;20032;-58
2021/10/18 12:10:13;;;;;;;;;;;;;;;;;;;;;
2021/10/18 12:13:10;;;;;;;20.02;12.63;;;;;;;;;;5061980;28;20039;-58
2021/10/18 12:15:57;;;;;;;19.27;12.20;;;;;;;;;;5071731;28;20072;-58
2021/10/18 12:24:34;;;;;;;17.02;12.80;;;;;;;;;;5074142;28;20127;-58
2021/10/18 12:30:49;;;;;;;17.13;12.80;;;;;;;;;;5051864;28;20094;-58
2021/10/18 12:33:35;;;;;;;19.27;12.93;;;;;;;;;;5009229;28;20050;-58
2021/10/18 12:39:13;;;;;;;15.48;12.45;;;;;;;;;;4978700;28;20048;-58
2021/10/18 12:41:58;;;;;;;16.45;13.13;;;;;;;;;;5066618;28;20060;-58
2021/10/18 12:45:06;;;;;;;;;;;;;;;;;;;;;
2021/10/18 12:47:56;;;;;;;;;;;;;;;;;;;;;
2021/10/18 12:50:45;;;;;;;14.77;11.20;;;;;;;;;;5084377;28;20028;-58
2021/10/18 12:53:42;;;;;;;13.32;10.93;;;;;;;;;;5072132;28;20037;-58
2021/10/18 12:56:41;;;;;;;14.70;12.93;;;;;;;;;;5054165;28;20319;-58
2021/10/18 12:59:25;;;;;;;15.25;12.48;;;;;;;;;;5018486;28;20560;-58
2021/10/18 13:02:16;;;;;;;17.52;12.63;;;;;;;;;;5031784;28;20044;-58
2021/10/18 13:05:22;;;;;;;15.88;11.15;;;;;;;;;;5031670;28;20090;-58
2021/10/18 13:08:29;;;;;;;16.20;12.32;;;;;;;;;;5050687;28;20039;-58
2021/10/18 13:11:01;;;;;;;13.57;11.57;;;;;;;;;;5063152;28;20571;-58
2021/10/18 13:19:27;;;;;;;15.70;10.30;;;;;;;;;;5052607;28;20091;-58
2021/10/18 13:22:09;;;;;;;11.45;9.40;;;;;;;;;;5086084;28;20032;-58
2021/10/18 13:24:38;;;;;;;18.80;11.43;;;;;;;;;;5055575;28;20176;-58
2021/10/18 13:27:13;;;;;;;12.32;10.05;;;;;;;;;;5052915;28;20028;-58
2021/10/18 13:30:17;;;;;;;11.02;9.45;;;;;;;;;;5071323;28;20458;-58
2021/10/18 13:32:50;;;;;;;13.82;11.35;;;;;;;;;;5070552;28;20108;-58
2021/10/18 13:35:17;;;;;;;13.35;10.77;;;;;;;;;;5070080;28;20430;-58
2021/10/18 13:38:08;;;;;;;12.18;10.02;;;;;;;;;;5070748;28;20032;-58
2021/10/18 13:43:50;;;;;;;12.43;9.82;;;;;;;;;;5065740;28;20033;-58
2021/10/18 13:46:20;;;;;;;12.90;11.55;;;;;;;;;;5052831;28;20041;-58
2021/10/18 13:54:59;;;;;;;18.15;11.80;;;;;;;;;;5055293;28;20041;-58
2021/10/18 13:57:34;;;;;;;12.23;10.15;;;;;;;;;;5054911;28;20032;-58
2021/10/18 14:03:11;;;;;;;14.30;11.98;;;;;;;;;;5005203;28;20048;-58
2021/10/18 14:06:11;;;;;;;19.98;12.70;;;;;;;;;;5075052;28;20087;-58
2021/10/18 14:08:47;;;;;;;10.63;9.27;;;;;;;;;;5012036;28;20066;-58
2021/10/18 14:11:36;;;;;;;13.73;10.00;;;;;;;;;;4986968;28;20040;-58
2021/10/18 14:14:22;;;;;;;12.40;10.80;;;;;;;;;;4999711;28;20492;-58
2021/10/18 14:17:33;;;;;;;13.15;8.50;;;;;;;;;;5015337;28;20462;-58
2021/10/18 14:20:03;;;;;;;9.63;8.60;;;;;;;;;;5052481;28;20055;-58
2021/10/18 14:22:51;;;;;;;;;;;;;;;;;;;;;
2021/10/18 14:25:39;;;;;;;13.10;10.13;;;;;;;;;;5055022;28;20033;-58
2021/10/18 14:28:19;;;;;;;11.80;8.38;;;;;;;;;;5052155;28;20032;-58
2021/10/18 14:31:16;;;;;;;;;;;;;;;;;;;;;
2021/10/18 14:34:06;;;;;;;10.02;8.05;;;;;;;;;;5062537;28;20037;-58
2021/10/18 14:36:45;;;;;;;13.10;9.73;;;;;;;;;;5056292;28;20470;-58
2021/10/18 14:42:20;;;;;;;;;;;;;;;;;;;;;
2021/10/18 14:45:02;;;;;;;13.05;8.95;;;;;;;;;;5068929;28;20037;-58
2021/10/18 14:50:32;;;;;;;13.98;10.20;;;;;;;;;;5065962;28;20070;-57
2021/10/18 14:53:02;;;;;;;11.80;9.77;;;;;;;;;;5072959;28;20046;-57
2021/10/18 14:56:09;;;;;;;13.02;9.88;;;;;;;;;;5056172;28;20358;-57
2021/10/18 14:58:50;;;;;;;15.40;11.25;;;;;;;;;;5010442;28;20025;-57
2021/10/18 15:01:36;;;;;;;14.85;10.85;;;;;;;;;;5050293;28;20233;-57
2021/10/18 15:04:15;;;;;;;11.73;10.63;;;;;;;;;;5070842;28;20336;-57
2021/10/18 15:07:09;;;;;;;12.45;10.93;;;;;;;;;;5055986;28;20024;-57
2021/10/18 15:12:47;;;;;;;;;;;;;;;;;;;;;
2021/10/18 15:15:16;;;;;;;15.75;10.52;;;;;;;;;;5062670;28;20041;-57
2021/10/18 15:18:17;;;;;;;18.40;11.65;;;;;;;;;;5072360;28;20059;-57
2021/10/18 15:20:51;;;;;;;16.88;10.85;;;;;;;;;;5072751;28;20048;-57
2021/10/18 15:23:32;;;;;;;17.70;11.48;;;;;;;;;;5072926;28;20032;-57
2021/10/18 15:25:58;;;;;;;;;;;;;;;;;;5073793;28;20031;-57
2021/10/18 15:28:25;;;;;;;14.23;10.73;;;;;;;;;;5054335;28;19995;-57
2021/10/18 15:31:27;;;;;;;15.25;11.55;;;;;;;;;;5079458;28;20491;-57
2021/10/18 15:36:57;;;;;;;;;;;;;;;;;;5059297;28;20037;-57
2021/10/18 15:39:35;;;;;;;16.55;11.43;;;;;;;;;;5087996;28;20293;-57
2021/10/18 15:42:23;;;;;;;12.80;10.50;;;;;;;;;;5077591;28;20066;-57
2021/10/18 15:45:13;;;;;;;16.33;10.55;;;;;;;;;;5041659;28;20057;-57
2021/10/18 15:48:06;;;;;;;;;;;;;;;;;;;;;
2021/10/18 15:50:53;;;;;;;15.20;10.98;;;;;;;;;;5079900;28;20029;-57
2021/10/18 15:53:27;;;;;;;14.00;10.63;;;;;;;;;;5070037;28;20482;-57
2021/10/18 15:55:53;;;;;;;13.75;12.27;;;;;;;;;;5086710;28;20108;-57
2021/10/18 15:58:26;;;;;;;19.08;13.13;;;;;;;;;;5071859;28;20017;-57
2021/10/18 16:01:01;;;;;;;17.15;13.02;;;;;;;;;;5054298;28;20044;-58
2021/10/18 16:06:54;;;;;;;17.50;12.07;;;;;;;;;;5069653;28;20090;-57
2021/10/18 16:10:09;;;;;;;;;;;;;;;;;;;;;
2021/10/18 16:12:40;;;;;;;19.50;12.30;;;;;;;;;;4995546;28;20042;-57
2021/10/18 16:15:30;;;;;;;16.42;12.07;;;;;;;;;;5012190;28;20081;-58
2021/10/18 16:20:53;;;;;;;19.23;14.90;;;;;;;;;;5072321;28;20493;-57
2021/10/18 16:24:10;;;;;;;13.98;12.40;;;;;;;;;;5054898;28;20040;-57
2021/10/18 16:26:42;;;;;;;16.02;12.80;;;;;;;;;;5072080;28;20021;-58
2021/10/18 16:29:30;;;;;;;16.83;11.63;;;;;;;;;;5087135;28;20068;-57
2021/10/18 16:35:35;;;;;;;15.65;11.63;;;;;;;;;;5041058;28;20484;-57
2021/10/18 16:38:36;;;;;;;16.13;11.30;;;;;;;;;;5071513;28;20020;-57
2021/10/18 16:41:37;;;;;;;16.92;12.35;;;;;;;;;;5071554;28;20514;-57
2021/10/18 16:44:11;;;;;;;17.55;12.32;;;;;;;;;;5040683;28;20057;-57
2021/10/18 16:46:53;;;;;;;16.70;12.27;;;;;;;;;;5071946;28;20120;-58
2021/10/18 16:49:37;;;;;;;17.40;13.18;;;;;;;;;;5071280;28;20083;-58
2021/10/18 16:52:21;;;;;;;13.82;12.50;;;;;;;;;;5052660;28;20490;-57
2021/10/18 16:55:00;;;;;;;22.15;13.52;;;;;;;;;;5052598;28;20388;-57
2021/10/18 16:57:49;;;;;;;17.38;12.27;;;;;;;;;;5039071;28;20028;-57
2021/10/18 17:03:21;;;;;;;19.83;14.37;;;;;;;;;;5066324;28;20078;-57
2021/10/18 17:06:03;;;;;;;;;;;;;;;;;;;;;
2021/10/18 17:11:39;;;;;;;14.90;13.30;;;;;;;;;;5069195;28;20535;-58
2021/10/18 17:14:05;;;;;;;19.20;12.73;;;;;;;;;;5051200;28;20059;-57
2021/10/18 17:16:48;;;;;;;;;;;;;;;;;;;;;
2021/10/18 17:19:29;;;;;;;18.45;14.90;;;;;;;;;;5070396;28;20023;-57
2021/10/18 17:22:12;;;;;;;21.08;15.38;;;;;;;;;;5071083;28;20061;-58
2021/10/18 17:24:52;;;;;;;;;;;;;;;;;;;;;
2021/10/18 17:27:38;;;;;;;;;;;;;;;;;;;;;
2021/10/18 17:36:17;;;;;;;14.18;10.80;;;;;;;;;;5075047;28;20115;-57
2021/10/18 17:39:07;;;;;;;19.20;11.38;;;;;;;;;;5088989;28;20028;-57
2021/10/18 17:41:51;;;;;;;12.18;10.35;;;;;;;;;;5093703;28;20161;-58
2021/10/18 17:47:49;;;;;;;15.35;11.95;;;;;;;;;;5071275;28;20120;-58
2021/10/18 17:50:26;;;;;;;18.10;12.13;;;;;;;;;;5088931;28;20384;-57
2021/10/18 17:52:56;;;;;;;11.20;8.93;;;;;;;;;;5054972;28;20449;-58
2021/10/18 17:55:34;;;;;;;10.88;9.30;;;;;;;;;;5074632;28;20444;-57
2021/10/18 17:58:12;;;;;;;16.48;11.15;;;;;;;;;;5066438;28;20024;-57
2021/10/18 18:12:49;;;;;;;11.88;9.57;;;;;;;;;;5104377;27;20125;-57
2021/10/18 18:15:16;;;;;;;16.35;11.82;;;;;;;;;;5082017;28;20394;-57
2021/10/18 18:17:42;;;;;;;16.52;13.23;;;;;;;;;;5104806;28;20035;-57
2021/10/18 18:20:14;;;;;;;17.73;14.30;;;;;;;;;;5107964;28;20031;-57
2021/10/18 18:22:46;;;;;;;15.75;12.60;;;;;;;;;;5087982;28;20035;-57
2021/10/18 18:25:16;;;;;;;14.82;12.40;;;;;;;;;;5108055;28;20061;-58
2021/10/18 18:27:53;;;;;;;16.47;12.13;;;;;;;;;;5106778;28;20461;-57
2021/10/18 18:30:22;;;;;;;14.43;11.95;;;;;;;;;;5112819;28;20070;-58
2021/10/18 18:32:52;;;;;;;11.75;10.52;;;;;;;;;;5116731;28;20088;-58
2021/10/18 18:35:19;;;;;;;13.13;10.30;;;;;;;;;;5075061;28;20027;-57
2021/10/18 18:37:51;;;;;;;15.15;11.60;;;;;;;;;;5107805;28;20360;-57
2021/10/18 18:40:28;;;;;;;14.07;11.18;;;;;;;;;;5108670;28;20050;-58
2021/10/18 18:42:58;;;;;;;13.05;10.40;;;;;;;;;;5106491;28;20024;-58
2021/10/18 18:45:24;;;;;;;15.57;10.60;;;;;;;;;;5105465;28;20465;-57
2021/10/18 18:47:51;;;;;;;13.60;10.77;;;;;;;;;;5104188;28;20062;-58
2021/10/18 18:50:18;;;;;;;13.10;11.30;;;;;;;;;;5107136;28;20031;-57
2021/10/18 18:52:50;;;;;;;15.18;11.02;;;;;;;;;;5070556;28;20040;-57
2021/10/18 18:55:17;;;;;;;14.13;10.65;;;;;;;;;;5107084;28;20419;-57
2021/10/18 18:57:44;;;;;;;14.85;10.18;;;;;;;;;;5108754;28;20032;-57
2021/10/18 19:00:11;;;;;;;12.85;9.48;;;;;;;;;;5111464;28;20439;-57
2021/10/18 19:02:38;;;;;;;14.35;11.05;;;;;;;;;;5098756;28;20165;-57
2021/10/18 19:05:06;;;;;;;13.43;11.60;;;;;;;;;;5069819;28;20498;-57
2021/10/18 19:07:32;;;;;;;14.73;11.93;;;;;;;;;;5087818;28;20050;-57
2021/10/18 19:09:58;;;;;;;12.23;10.70;;;;;;;;;;5093270;28;20040;-57
2021/10/18 19:12:27;;;;;;;14.02;10.70;;;;;;;;;;5091586;28;20073;-57
2021/10/18 19:14:59;;;;;;;16.13;11.05;;;;;;;;;;5080171;28;20148;-58
2021/10/18 19:17:26;;;;;;;16.13;10.07;;;;;;;;;;5045322;28;20485;-57
2021/10/18 19:19:52;;;;;;;17.25;11.95;;;;;;;;;;5047597;28;20157;-57
2021/10/18 19:22:27;;;;;;;13.82;10.55;;;;;;;;;;5074381;28;20050;-57
2021/10/18 19:24:55;;;;;;;15.48;10.45;;;;;;;;;;5075611;28;20470;-57
2021/10/18 19:27:21;;;;;;;15.15;12.30;;;;;;;;;;5072087;28;20028;-57
2021/10/18 19:29:58;;;;;;;15.00;11.75;;;;;;;;;;5074575;28;20042;-57
2021/10/18 19:32:24;;;;;;;15.50;11.40;;;;;;;;;;5077033;28;20504;-57
2021/10/18 19:34:56;;;;;;;14.85;11.88;;;;;;;;;;5072481;28;20073;-57
2021/10/18 19:37:22;;;;;;;14.43;11.10;;;;;;;;;;5066477;28;20028;-57
2021/10/18 19:39:49;;;;;;;16.58;12.02;;;;;;;;;;5073979;28;20020;-57
2021/10/18 19:42:16;;;;;;;14.18;12.13;;;;;;;;;;5069328;28;20032;-57
2021/10/18 19:44:47;;;;;;;18.88;11.98;;;;;;;;;;5059343;28;20035;-58
2021/10/18 19:47:13;;;;;;;14.93;11.40;;;;;;;;;;5072148;28;20031;-57
2021/10/18 19:49:43;;;;;;;15.65;10.93;;;;;;;;;;5056714;28;20058;-57
2021/10/18 19:52:18;;;;;;;15.10;11.00;;;;;;;;;;5085974;28;20042;-57
2021/10/18 19:54:49;;;;;;;14.80;11.63;;;;;;;;;;5074639;28;20028;-61
2021/10/18 19:57:21;;;;;;;16.63;12.65;;;;;;;;;;5076761;28;20036;-57
2021/10/18 19:59:50;;;;;;;15.95;12.20;;;;;;;;;;5075835;28;20385;-58
2021/10/18 20:02:25;;;;;;;17.52;12.65;;;;;;;;;;5056439;28;20044;-57
2021/10/18 20:05:04;;;;;;;19.30;13.45;;;;;;;;;;5070949;28;20131;-58
2021/10/18 20:10:36;;;;;;;14.95;12.35;;;;;;;;;;5060034;28;20163;-57
2021/10/18 20:13:08;;;;;;;16.70;13.05;;;;;;;;;;5062980;28;20111;-57
2021/10/18 20:15:37;;;;;;;17.00;13.02;;;;;;;;;;5068851;28;20071;-57
2021/10/18 20:18:14;;;;;;;14.25;12.10;;;;;;;;;;5068517;28;20025;-57
2021/10/18 20:20:43;;;;;;;17.50;12.57;;;;;;;;;;5070662;28;20041;-57
2021/10/18 20:23:12;;;;;;;17.42;12.90;;;;;;;;;;5065565;28;20036;-57
2021/10/18 20:25:41;;;;;;;18.90;13.98;;;;;;;;;;5061451;28;20031;-57
2021/10/18 20:28:09;;;;;;;17.50;12.48;;;;;;;;;;5064946;28;20118;-57
2021/10/18 20:30:38;;;;;;;14.88;12.52;;;;;;;;;;5021605;28;20089;-57